createdAt,value
2019-04-27T00:02:13.473Z,97572.00
2019-04-27T00:05:03.819Z,97566.00
2019-04-27T00:07:43.827Z,97569.00
2019-04-27T00:10:20.451Z,97563.00
2019-04-27T00:12:57.317Z,97575.00
2019-04-27T00:15:36.895Z,97548.00
2019-04-27T00:18:18.766Z,97562.00
2019-04-27T00:21:09.081Z,97557.00
2019-04-27T00:23:42.902Z,97555.00
2019-04-27T00:26:14.254Z,97559.00
2019-04-27T00:28:45.561Z,97556.00
2019-04-27T00:31:16.931Z,97549.00
2019-04-27T00:33:48.273Z,97542.00
2019-04-27T00:36:29.502Z,97533.00
2019-04-27T00:39:27.996Z,97539.00
2019-04-27T00:41:59.342Z,97535.00
2019-04-27T00:44:31.569Z,97531.00
2019-04-27T00:47:04.662Z,97532.00
2019-04-27T00:49:36.287Z,97519.00
2019-04-27T00:52:07.604Z,97517.00
2019-04-27T00:54:39.041Z,97526.00
2019-04-27T00:57:33.212Z,97519.00
2019-04-27T01:00:26.076Z,97522.00
2019-04-27T01:03:00.431Z,97519.00
2019-04-27T01:05:31.755Z,97521.00
2019-04-27T01:08:03.797Z,97514.00
2019-04-27T01:10:35.322Z,97520.00
2019-04-27T01:13:06.878Z,97504.00
2019-04-27T01:15:38.228Z,97513.00
2019-04-27T01:18:15.007Z,97514.00
2019-04-27T01:20:43.704Z,97517.00
2019-04-27T01:23:15.224Z,97502.00
2019-04-27T01:26:06.473Z,97522.00
2019-04-27T01:28:44.415Z,97534.00
2019-04-27T01:31:15.887Z,97523.00
2019-04-27T01:33:48.799Z,97520.00
2019-04-27T01:36:20.171Z,97525.00
2019-04-27T01:38:51.483Z,97524.00
2019-04-27T01:41:22.837Z,97530.00
2019-04-27T01:43:54.142Z,97524.00
2019-04-27T01:46:25.512Z,97521.00
2019-04-27T01:48:56.893Z,97509.00
2019-04-27T01:51:29.466Z,97511.00
2019-04-27T01:54:00.811Z,97520.00
2019-04-27T01:56:32.171Z,97510.00
2019-04-27T01:59:03.561Z,97520.00
2019-04-27T02:01:59.949Z,97511.00
2019-04-27T02:04:50.342Z,97519.00
2019-04-27T02:07:21.730Z,97521.00
2019-04-27T02:09:53.140Z,97514.00
2019-04-27T02:12:24.498Z,97497.00
2019-04-27T02:14:55.808Z,97509.00
2019-04-27T02:17:28.799Z,97500.00
2019-04-27T02:20:00.174Z,97502.00
2019-04-27T02:22:31.629Z,97495.00
2019-04-27T02:25:03.146Z,97497.00
2019-04-27T02:27:36.074Z,97486.00
2019-04-27T02:30:25.277Z,97483.00
2019-04-27T02:33:13.050Z,97487.00
2019-04-27T02:35:44.358Z,97486.00
2019-04-27T02:38:15.652Z,97491.00
2019-04-27T02:41:01.093Z,97495.00
2019-04-27T02:43:51.357Z,97499.00
2019-04-27T02:46:22.761Z,97501.00
2019-04-27T02:49:00.203Z,97488.00
2019-04-27T02:51:45.030Z,97486.00
2019-04-27T02:54:16.374Z,97486.00
2019-04-27T02:56:50.070Z,97495.00
2019-04-27T02:59:20.697Z,97481.00
2019-04-27T03:02:01.074Z,97491.00
2019-04-27T03:04:32.387Z,97503.00
2019-04-27T03:07:03.749Z,97497.00
2019-04-27T03:09:35.073Z,97499.00
2019-04-27T03:12:06.488Z,97497.00
2019-04-27T03:14:54.389Z,97486.00
2019-04-27T03:17:49.447Z,97490.00
2019-04-27T03:20:30.013Z,97493.00
2019-04-27T03:23:03.969Z,97491.00
2019-04-27T03:25:43.807Z,97488.00
2019-04-27T03:28:16.217Z,97483.00
2019-04-27T03:30:51.628Z,97487.00
2019-04-27T03:33:22.319Z,97496.00
2019-04-27T03:35:54.117Z,97472.00
2019-04-27T03:38:25.610Z,97479.00
2019-04-27T03:40:56.926Z,97467.00
2019-04-27T03:43:30.249Z,97471.00
2019-04-27T03:46:01.303Z,97491.00
2019-04-27T03:48:32.651Z,97482.00
2019-04-27T03:51:29.927Z,97487.00
2019-04-27T03:54:22.191Z,97478.00
2019-04-27T03:56:59.463Z,97474.00
2019-04-27T03:59:33.820Z,97482.00
2019-04-27T04:02:05.179Z,97485.00
2019-04-27T04:04:36.471Z,97493.00
2019-04-27T04:07:19.470Z,97472.00
2019-04-27T04:09:50.489Z,97481.00
2019-04-27T04:12:33.070Z,97479.00
2019-04-27T04:15:05.247Z,97493.00
2019-04-27T04:17:36.517Z,97480.00
2019-04-27T04:20:10.232Z,97494.00
2019-04-27T04:22:41.667Z,97490.00
2019-04-27T04:25:13.275Z,97491.00
2019-04-27T04:27:44.716Z,97494.00
2019-04-27T04:30:16.536Z,97511.00
2019-04-27T04:32:51.641Z,97504.00
2019-04-27T04:35:24.359Z,97497.00
2019-04-27T04:37:55.729Z,97501.00
2019-04-27T04:40:35.322Z,97498.00
2019-04-27T04:43:15.388Z,97505.00
2019-04-27T04:45:59.606Z,97500.00
2019-04-27T04:48:31.003Z,97509.00
2019-04-27T04:51:02.355Z,97505.00
2019-04-27T04:53:33.704Z,97514.00
2019-04-27T04:56:05.026Z,97502.00
2019-04-27T04:58:36.358Z,97510.00
2019-04-27T05:01:09.730Z,97519.00
2019-04-27T05:03:40.803Z,97527.00
2019-04-27T05:06:12.164Z,97528.00
2019-04-27T05:08:43.503Z,97518.00
2019-04-27T05:11:14.824Z,97519.00
2019-04-27T05:13:46.156Z,97524.00
2019-04-27T05:16:18.933Z,97514.00
2019-04-27T05:18:50.332Z,97518.00
2019-04-27T05:21:32.991Z,97524.00
2019-04-27T05:24:05.275Z,97521.00
2019-04-27T05:26:36.603Z,97518.00
2019-04-27T05:29:09.114Z,97521.00
2019-04-27T05:31:40.540Z,97526.00
2019-04-27T05:34:11.897Z,97532.00
2019-04-27T05:36:48.896Z,97524.00
2019-04-27T05:39:18.157Z,97530.00
2019-04-27T05:41:49.957Z,97531.00
2019-04-27T05:44:35.183Z,97524.00
2019-04-27T05:47:20.842Z,97535.00
2019-04-27T05:49:58.809Z,97522.00
2019-04-27T05:52:33.274Z,97520.00
2019-04-27T05:55:04.815Z,97533.00
2019-04-27T05:57:36.168Z,97522.00
2019-04-27T06:00:09.341Z,97528.00
2019-04-27T06:02:40.673Z,97525.00
2019-04-27T06:05:12.212Z,97529.00
2019-04-27T06:07:43.496Z,97520.00
2019-04-27T06:10:15.458Z,97522.00
2019-04-27T06:12:48.891Z,97528.00
2019-04-27T06:15:20.284Z,97526.00
2019-04-27T06:17:51.571Z,97527.00
2019-04-27T06:20:22.932Z,97520.00
2019-04-27T06:22:54.306Z,97528.00
2019-04-27T06:25:25.651Z,97528.00
2019-04-27T06:27:57.000Z,97525.00
2019-04-27T06:30:29.241Z,97537.00
2019-04-27T06:33:00.672Z,97529.00
2019-04-27T06:35:32.154Z,97533.00
2019-04-27T06:38:03.443Z,97520.00
2019-04-27T06:40:35.507Z,97524.00
2019-04-27T06:43:08.487Z,97513.00
2019-04-27T06:45:40.075Z,97520.00
2019-04-27T06:48:11.395Z,97517.00
2019-04-27T06:50:42.839Z,97526.00
2019-04-27T06:53:14.194Z,97532.00
2019-04-27T06:55:45.523Z,97518.00
2019-04-27T06:58:16.873Z,97529.00
2019-04-27T07:00:49.685Z,97521.00
2019-04-27T07:03:21.124Z,97529.00
2019-04-27T07:05:52.507Z,97531.00
2019-04-27T07:08:23.943Z,97532.00
2019-04-27T07:10:55.352Z,97539.00
2019-04-27T07:13:26.714Z,97534.00
2019-04-27T07:15:59.700Z,97528.00
2019-04-27T07:18:31.088Z,97531.00
2019-04-27T07:21:02.474Z,97535.00
2019-04-27T07:23:35.445Z,97538.00
2019-04-27T07:26:06.842Z,97540.00
2019-04-27T07:28:40.864Z,97538.00
2019-04-27T07:31:12.484Z,97536.00
2019-04-27T07:33:43.933Z,97538.00
2019-04-27T07:36:15.343Z,97543.00
2019-04-27T07:38:48.461Z,97525.00
2019-04-27T07:41:20.177Z,97530.00
2019-04-27T07:43:58.606Z,97529.00
2019-04-27T07:46:31.774Z,97527.00
2019-04-27T07:49:03.385Z,97533.00
2019-04-27T07:51:34.853Z,97523.00
2019-04-27T07:54:06.219Z,97535.00
2019-04-27T07:56:38.954Z,97519.00
2019-04-27T07:59:10.432Z,97510.00
2019-04-27T08:01:41.807Z,97510.00
2019-04-27T08:04:13.199Z,97525.00
2019-04-27T08:06:44.638Z,97510.00
2019-04-27T08:09:16.040Z,97520.00
2019-04-27T08:11:48.844Z,97521.00
2019-04-27T08:14:20.411Z,97510.00
2019-04-27T08:16:51.897Z,97504.00
2019-04-27T08:19:23.266Z,97494.00
2019-04-27T08:21:54.681Z,97514.00
2019-04-27T08:24:26.083Z,97500.00
2019-04-27T08:27:02.700Z,97495.00
2019-04-27T08:30:00.160Z,97494.00
2019-04-27T08:32:39.084Z,97503.00
2019-04-27T08:35:11.580Z,97485.00
2019-04-27T08:37:43.111Z,97484.00
2019-04-27T08:43:55.967Z,97483.00
2019-04-27T08:46:28.651Z,97492.00
2019-04-27T08:49:00.121Z,97486.00
2019-04-27T08:51:31.517Z,97493.00
2019-04-27T08:54:02.984Z,97482.00
2019-04-27T08:56:34.474Z,97482.00
2019-04-27T08:59:05.985Z,97477.00
2019-04-27T09:01:37.442Z,97486.00
2019-04-27T09:04:09.249Z,97475.00
2019-04-27T09:06:43.761Z,97481.00
2019-04-27T09:09:24.981Z,97467.00
2019-04-27T09:12:14.564Z,97449.00
2019-04-27T09:14:59.111Z,97459.00
2019-04-27T09:17:34.385Z,97452.00
2019-04-27T09:20:14.391Z,97447.00
2019-04-27T09:22:45.830Z,97445.00
2019-04-27T09:25:19.205Z,97440.00
2019-04-27T09:27:50.764Z,97442.00
2019-04-27T09:30:26.796Z,97430.00
2019-04-27T09:32:58.763Z,97429.00
2019-04-27T09:35:30.352Z,97427.00
2019-04-27T09:38:01.814Z,97421.00
2019-04-27T09:40:33.302Z,97425.00
2019-04-27T09:43:04.885Z,97415.00
2019-04-27T09:45:37.191Z,97421.00
2019-04-27T09:48:08.897Z,97421.00
2019-04-27T09:50:40.462Z,97419.00
2019-04-27T09:53:12.101Z,97416.00
2019-04-27T09:55:43.563Z,97402.00
2019-04-27T09:58:15.981Z,97411.00
2019-04-27T10:00:49.478Z,97391.00
2019-04-27T10:03:23.631Z,97396.00
2019-04-27T10:05:56.886Z,97384.00
2019-04-27T10:08:28.726Z,97391.00
2019-04-27T10:11:00.331Z,97374.00
2019-04-27T10:13:31.892Z,97385.00
2019-04-27T10:16:06.350Z,97381.00
2019-04-27T10:18:37.837Z,97376.00
2019-04-27T10:21:09.375Z,97368.00
2019-04-27T10:23:40.846Z,97359.00
2019-04-27T10:26:12.376Z,97358.00
2019-04-27T10:28:43.852Z,97348.00
2019-04-27T10:31:15.281Z,97339.00
2019-04-27T10:33:46.651Z,97348.00
2019-04-27T10:36:38.127Z,97354.00
2019-04-27T10:39:14.291Z,97354.00
2019-04-27T10:41:46.317Z,97357.00
2019-04-27T10:44:17.774Z,97354.00
2019-04-27T10:46:52.419Z,97362.00
2019-04-27T10:49:23.875Z,97373.00
2019-04-27T10:51:55.822Z,97387.00
2019-04-27T10:54:28.198Z,97398.00
2019-04-27T10:56:59.626Z,97412.00
2019-04-27T10:59:31.057Z,97404.00
2019-04-27T11:02:02.440Z,97390.00
2019-04-27T11:04:56.603Z,97374.00
2019-04-27T11:07:36.183Z,97385.00
2019-04-27T11:10:08.991Z,97376.00
2019-04-27T11:12:40.400Z,97384.00
2019-04-27T11:15:12.206Z,97377.00
2019-04-27T11:17:43.628Z,97358.00
2019-04-27T11:20:15.066Z,97377.00
2019-04-27T11:22:46.588Z,97365.00
2019-04-27T11:25:18.107Z,97376.00
2019-04-27T11:27:49.516Z,97373.00
2019-04-27T11:30:21.272Z,97363.00
2019-04-27T11:32:54.503Z,97354.00
2019-04-27T11:35:42.505Z,97355.00
2019-04-27T11:38:13.928Z,97344.00
2019-04-27T11:40:46.637Z,97348.00
2019-04-27T11:43:18.135Z,97344.00
2019-04-27T11:45:49.589Z,97344.00
2019-04-27T11:48:20.978Z,97343.00
2019-04-27T11:50:52.512Z,97340.00
2019-04-27T11:53:23.926Z,97357.00
2019-04-27T11:55:55.329Z,97359.00
2019-04-27T11:58:26.780Z,97382.00
2019-04-27T12:00:58.317Z,97362.00
2019-04-27T12:03:29.760Z,97349.00
2019-04-27T12:06:01.286Z,97343.00
2019-04-27T12:08:32.711Z,97341.00
2019-04-27T12:11:05.926Z,97333.00
2019-04-27T12:13:37.455Z,97326.00
2019-04-27T12:16:08.904Z,97334.00
2019-04-27T12:18:40.341Z,97320.00
2019-04-27T12:21:11.922Z,97304.00
2019-04-27T12:23:47.070Z,97309.00
2019-04-27T12:26:33.255Z,97305.00
2019-04-27T12:29:06.266Z,97298.00
2019-04-27T12:31:42.875Z,97303.00
2019-04-27T12:34:13.044Z,97297.00
2019-04-27T12:36:45.923Z,97295.00
2019-04-27T12:39:17.352Z,97291.00
2019-04-27T12:41:48.863Z,97287.00
2019-04-27T12:44:20.241Z,97293.00
2019-04-27T12:46:51.689Z,97298.00
2019-04-27T12:49:23.160Z,97305.00
2019-04-27T12:51:55.834Z,97314.00
2019-04-27T12:54:38.837Z,97308.00
2019-04-27T12:57:38.354Z,97311.00
2019-04-27T13:00:38.327Z,97335.00
2019-04-27T13:03:09.870Z,97344.00
2019-04-27T13:05:41.259Z,97331.00
2019-04-27T13:08:12.751Z,97335.00
2019-04-27T13:10:44.165Z,97331.00
2019-04-27T13:13:16.430Z,97332.00
2019-04-27T13:15:48.053Z,97327.00
2019-04-27T13:18:19.465Z,97341.00
2019-04-27T13:20:50.857Z,97334.00
2019-04-27T13:23:22.279Z,97332.00
2019-04-27T13:25:53.711Z,97316.00
2019-04-27T13:28:25.681Z,97311.00
2019-04-27T13:30:57.258Z,97322.00
2019-04-27T13:33:28.756Z,97312.00
2019-04-27T13:36:00.261Z,97294.00
2019-04-27T13:38:31.744Z,97309.00
2019-04-27T13:41:10.041Z,97305.00
2019-04-27T13:43:42.264Z,97294.00
2019-04-27T13:46:26.003Z,97303.00
2019-04-27T13:49:17.572Z,97304.00
2019-04-27T13:52:01.416Z,97294.00
2019-04-27T13:54:32.825Z,97309.00
2019-04-27T13:57:04.329Z,97287.00
2019-04-27T13:59:35.744Z,97297.00
2019-04-27T14:02:07.494Z,97294.00
2019-04-27T14:04:38.935Z,97282.00
2019-04-27T14:07:10.497Z,97297.00
2019-04-27T14:09:42.137Z,97295.00
2019-04-27T14:12:23.643Z,97283.00
2019-04-27T14:14:56.694Z,97282.00
2019-04-27T14:17:29.356Z,97289.00
2019-04-27T14:20:00.944Z,97280.00
2019-04-27T14:22:32.588Z,97255.00
2019-04-27T14:25:04.081Z,97257.00
2019-04-27T14:27:40.835Z,97268.00
2019-04-27T14:30:15.436Z,97254.00
2019-04-27T14:32:46.909Z,97270.00
2019-04-27T14:35:19.380Z,97283.00
2019-04-27T14:37:50.962Z,97275.00
2019-04-27T14:40:22.460Z,97279.00
2019-04-27T14:42:54.137Z,97288.00
2019-04-27T14:45:25.962Z,97269.00
2019-04-27T14:47:58.216Z,97265.00
2019-04-27T14:50:30.579Z,97262.00
2019-04-27T14:53:04.730Z,97277.00
2019-04-27T14:55:36.057Z,97266.00
2019-04-27T14:58:08.733Z,97262.00
2019-04-27T15:00:40.211Z,97271.00
2019-04-27T15:03:11.583Z,97248.00
2019-04-27T15:05:42.940Z,97260.00
2019-04-27T15:08:14.310Z,97256.00
2019-04-27T15:10:46.411Z,97261.00
2019-04-27T15:13:18.854Z,97266.00
2019-04-27T15:15:50.273Z,97264.00
2019-04-27T15:18:23.312Z,97258.00
2019-04-27T15:20:54.689Z,97253.00
2019-04-27T15:23:26.611Z,97234.00
2019-04-27T15:26:00.397Z,97261.00
2019-04-27T15:28:33.468Z,97256.00
2019-04-27T15:31:27.066Z,97247.00
2019-04-27T15:34:11.078Z,97265.00
2019-04-27T15:36:52.956Z,97262.00
2019-04-27T15:39:39.865Z,97259.00
2019-04-27T15:42:13.473Z,97262.00
2019-04-27T15:44:44.936Z,97258.00
2019-04-27T15:47:17.790Z,97261.00
2019-04-27T15:49:51.095Z,97244.00
2019-04-27T15:52:25.621Z,97236.00
2019-04-27T15:54:55.432Z,97252.00
2019-04-27T15:57:27.935Z,97237.00
2019-04-27T15:59:59.303Z,97233.00
2019-04-27T16:02:30.740Z,97223.00
2019-04-27T16:05:02.074Z,97207.00
2019-04-27T16:07:33.401Z,97221.00
2019-04-27T16:10:05.090Z,97205.00
2019-04-27T16:12:39.067Z,97217.00
2019-04-27T16:15:13.518Z,97207.00
2019-04-27T16:17:51.021Z,97205.00
2019-04-27T16:20:22.531Z,97199.00
2019-04-27T16:22:56.661Z,97194.00
2019-04-27T16:25:28.262Z,97193.00
2019-04-27T16:27:59.561Z,97208.00
2019-04-27T16:30:30.994Z,97211.00
2019-04-27T16:33:03.298Z,97212.00
2019-04-27T16:35:34.788Z,97212.00
2019-04-27T16:38:34.677Z,97214.00
2019-04-27T16:41:04.537Z,97194.00
2019-04-27T16:43:35.943Z,97206.00
2019-04-27T16:46:08.913Z,97203.00
2019-04-27T16:48:40.326Z,97206.00
2019-04-27T16:51:12.234Z,97210.00
2019-04-27T16:53:43.535Z,97284.00
2019-04-27T16:56:18.283Z,97292.00
2019-04-27T16:58:55.929Z,97314.00
2019-04-27T17:01:25.791Z,97335.00
2019-04-27T17:03:58.881Z,97353.00
2019-04-27T17:06:30.345Z,97386.00
2019-04-27T17:09:06.818Z,97394.00
2019-04-27T17:11:38.289Z,97403.00
2019-04-27T17:14:34.801Z,97390.00
2019-04-27T17:17:23.167Z,97436.00
2019-04-27T17:19:58.371Z,97420.00
2019-04-27T17:22:29.773Z,97419.00
2019-04-27T17:25:01.199Z,97436.00
2019-04-27T17:27:48.264Z,97428.00
2019-04-27T17:30:19.835Z,97430.00
2019-04-27T17:33:13.756Z,97420.00
2019-04-27T17:35:42.763Z,97432.00
2019-04-27T17:38:15.801Z,97429.00
2019-04-27T17:40:48.435Z,97441.00
2019-04-27T17:43:20.275Z,97448.00
2019-04-27T17:45:51.633Z,97441.00
2019-04-27T17:48:22.983Z,97437.00
2019-04-27T17:50:55.951Z,97433.00
2019-04-27T17:53:29.837Z,97440.00
2019-04-27T17:56:05.581Z,97443.00
2019-04-27T17:58:35.355Z,97456.00
2019-04-27T18:01:08.531Z,97436.00
2019-04-27T18:03:39.877Z,97435.00
2019-04-27T18:06:11.250Z,97388.00
2019-04-27T18:08:42.624Z,97370.00
2019-04-27T18:11:13.977Z,97385.00
2019-04-27T18:13:45.416Z,97390.00
2019-04-27T18:16:16.781Z,97400.00
2019-04-27T18:18:59.454Z,97405.00
2019-04-27T18:21:33.804Z,97428.00
2019-04-27T18:24:10.693Z,97429.00
2019-04-27T18:26:51.978Z,97440.00
2019-04-27T18:29:22.756Z,97448.00
2019-04-27T18:31:54.842Z,97442.00
2019-04-27T18:34:26.206Z,97442.00
2019-04-27T18:36:57.517Z,97449.00
2019-04-27T18:39:28.866Z,97466.00
2019-04-27T18:42:00.327Z,97452.00
2019-04-27T18:44:31.981Z,97446.00
2019-04-27T18:47:03.471Z,97474.00
2019-04-27T18:50:08.000Z,97484.00
2019-04-27T18:52:50.337Z,97480.00
2019-04-27T18:55:21.683Z,97497.00
2019-04-27T18:57:54.492Z,97489.00
2019-04-27T19:00:27.661Z,97496.00
2019-04-27T19:03:00.181Z,97485.00
2019-04-27T19:05:39.656Z,97489.00
2019-04-27T19:08:04.598Z,97496.00
2019-04-27T19:10:35.940Z,97480.00
2019-04-27T19:13:08.773Z,97472.00
2019-04-27T19:15:41.257Z,97465.00
2019-04-27T19:18:12.630Z,97470.00
2019-04-27T19:20:45.139Z,97466.00
2019-04-27T19:23:16.457Z,97469.00
2019-04-27T19:26:09.911Z,97476.00
2019-04-27T19:29:09.400Z,97498.00
2019-04-27T19:31:48.203Z,97498.00
2019-04-27T19:34:20.599Z,97516.00
2019-04-27T19:36:52.879Z,97504.00
2019-04-27T19:39:24.260Z,97515.00
2019-04-27T19:42:00.248Z,97516.00
2019-04-27T19:44:29.337Z,97520.00
2019-04-27T19:47:00.710Z,97521.00
2019-04-27T19:49:32.062Z,97516.00
2019-04-27T19:52:03.432Z,97538.00
2019-04-27T19:54:34.766Z,97533.00
2019-04-27T19:57:06.153Z,97536.00
2019-04-27T19:59:45.855Z,97546.00
2019-04-27T20:02:20.256Z,97543.00
2019-04-27T20:04:58.581Z,97537.00
2019-04-27T20:07:29.941Z,97546.00
2019-04-27T20:10:02.445Z,97528.00
2019-04-27T20:12:34.041Z,97523.00
2019-04-27T20:15:05.907Z,97524.00
2019-04-27T20:17:37.253Z,97516.00
2019-04-27T20:20:08.699Z,97522.00
2019-04-27T20:22:40.079Z,97526.00
2019-04-27T20:25:11.566Z,97510.00
2019-04-27T20:27:49.316Z,97498.00
2019-04-27T20:30:16.197Z,97500.00
2019-04-27T20:32:47.527Z,97515.00
2019-04-27T20:35:18.879Z,97529.00
2019-04-27T20:37:51.846Z,97530.00
2019-04-27T20:40:23.318Z,97527.00
2019-04-27T20:42:54.671Z,97540.00
2019-04-27T20:45:27.094Z,97534.00
2019-04-27T20:47:58.408Z,97554.00
2019-04-27T20:50:30.891Z,97553.00
2019-04-27T20:53:06.481Z,97550.00
2019-04-27T20:55:37.856Z,97572.00
2019-04-27T20:58:10.930Z,97572.00
2019-04-27T21:00:42.288Z,97567.00
2019-04-27T21:03:22.741Z,97573.00
2019-04-27T21:06:11.803Z,97562.00
2019-04-27T21:08:43.331Z,97566.00
2019-04-27T21:11:14.692Z,97567.00
2019-04-27T21:13:46.970Z,97579.00
2019-04-27T21:16:18.360Z,97584.00
2019-04-27T21:18:51.377Z,97604.00
2019-04-27T21:21:22.731Z,97604.00
2019-04-27T21:23:54.188Z,97591.00
2019-04-27T21:26:25.516Z,97598.00
2019-04-27T21:28:56.841Z,97593.00
2019-04-27T21:31:31.674Z,97601.00
2019-04-27T21:34:03.009Z,97597.00
2019-04-27T21:36:34.375Z,97597.00
2019-04-27T21:39:07.477Z,97597.00
2019-04-27T21:41:41.342Z,97592.00
2019-04-27T21:44:12.682Z,97599.00
2019-04-27T21:46:44.017Z,97599.00
2019-04-27T21:49:15.357Z,97605.00
2019-04-27T21:52:05.650Z,97601.00
2019-04-27T21:54:37.931Z,97609.00
2019-04-27T21:57:12.459Z,97622.00
2019-04-27T21:59:42.306Z,97611.00
2019-04-27T22:02:13.831Z,97614.00
2019-04-27T22:04:45.156Z,97622.00
2019-04-27T22:07:16.525Z,97607.00
2019-04-27T22:09:47.867Z,97606.00
2019-04-27T22:12:21.233Z,97616.00
2019-04-27T22:14:53.102Z,97605.00
2019-04-27T22:17:24.569Z,97620.00
2019-04-27T22:19:57.002Z,97627.00
2019-04-27T22:22:35.529Z,97618.00
2019-04-27T22:25:11.494Z,97627.00
2019-04-27T22:27:42.630Z,97629.00
2019-04-27T22:30:14.049Z,97643.00
2019-04-27T22:32:45.398Z,97640.00
2019-04-27T22:35:16.706Z,97645.00
2019-04-27T22:37:49.051Z,97650.00
2019-04-27T22:40:48.210Z,97653.00
2019-04-27T22:43:56.496Z,97673.00
2019-04-27T22:46:28.658Z,97663.00
2019-04-27T22:49:01.731Z,97662.00
2019-04-27T22:51:33.144Z,97664.00
2019-04-27T22:54:04.507Z,97675.00
2019-04-27T22:56:36.276Z,97668.00
2019-04-27T22:59:41.725Z,97657.00
2019-04-27T23:02:31.729Z,97677.00
2019-04-27T23:05:04.869Z,97663.00
2019-04-27T23:07:36.322Z,97669.00
2019-04-27T23:10:08.360Z,97672.00
2019-04-27T23:12:41.822Z,97674.00
2019-04-27T23:15:17.002Z,97690.00
2019-04-27T23:17:52.518Z,97676.00
2019-04-27T23:20:23.952Z,97680.00
2019-04-27T23:22:55.342Z,97673.00
2019-04-27T23:25:26.662Z,97671.00
2019-04-27T23:27:58.048Z,97664.00
2019-04-27T23:30:36.800Z,97660.00
2019-04-27T23:33:08.174Z,97674.00
2019-04-27T23:35:41.386Z,97674.00
2019-04-27T23:38:17.205Z,97667.00
2019-04-27T23:40:45.877Z,97665.00
2019-04-27T23:43:17.310Z,97674.00
2019-04-27T23:45:48.634Z,97677.00
2019-04-27T23:48:19.975Z,97676.00
2019-04-27T23:50:53.369Z,97673.00
2019-04-27T23:53:28.216Z,97674.00
2019-04-27T23:55:59.562Z,97673.00
2019-04-27T23:58:30.958Z,97658.00
